Aviation Digital Data Service (ADDS)

Output produced by TAFs form (1753 UTC 15 December 2017)
found at http://www.aviationweather.gov/adds/tafs/
 
KTLH 151653Z 30007KT 10SM FEW028 SCT120 17/06 A3010 RMK AO2 SLP190 T01720056
KTLH 151733Z 1518/1618 31008KT P6SM BKN100 
     FM160500 01005KT P6SM BKN040